Time;durP1;ratioP1;P1;durP2;ratioP2;P2;SDS_P1;SDS_P2;PMS_P1;PMS_P2;Temp;Humidity;BMP_temperature;BMP_pressure;BME280_temperature;BME280_humidity;BME280_pressure;Samples;Min_cycle;Max_cycle;Signal;HPM_P1;HPM_P2
2022/12/15 00:40:11;;;;;;;32.33;18.48;;;;;;;;;;4863751;29;20049;-58
2022/12/15 00:42:37;;;;;;;34.60;19.50;;;;;;;;;;4863899;29;20049;-60
2022/12/15 00:45:04;;;;;;;29.67;18.35;;;;;;;;;;4846666;29;20514;-59
2022/12/15 00:47:31;;;;;;;28.55;17.80;;;;;;;;;;4864478;29;20098;-57
2022/12/15 01:20:19;;;;;;;24.92;15.32;;;;;;;;;;4865044;29;20102;-58
2022/12/15 01:22:51;;;;;;;24.88;15.40;;;;;;;;;;4848282;29;20084;-57
2022/12/15 01:25:19;;;;;;;24.77;14.43;;;;;;;;;;4848300;29;20135;-56
2022/12/15 01:27:45;;;;;;;24.23;15.70;;;;;;;;;;4848959;29;20503;-58
2022/12/15 01:30:13;;;;;;;26.02;15.32;;;;;;;;;;4865554;29;20049;-57
2022/12/15 01:32:40;;;;;;;25.92;16.25;;;;;;;;;;4834645;29;20063;-57
2022/12/15 01:35:11;;;;;;;23.65;15.80;;;;;;;;;;4864769;29;20049;-60
2022/12/15 01:37:38;;;;;;;26.27;15.52;;;;;;;;;;4865450;29;20105;-58
2022/12/15 01:42:50;;;;;;;22.30;14.30;;;;;;;;;;4864696;29;20049;-59
2022/12/15 01:45:37;;;;;;;24.00;14.75;;;;;;;;;;4864295;29;20049;-57
2022/12/15 01:48:05;;;;;;;26.13;16.60;;;;;;;;;;4827044;29;20061;-58
2022/12/15 01:50:35;;;;;;;23.58;14.85;;;;;;;;;;4848103;29;20060;-59
2022/12/15 01:53:02;;;;;;;24.58;15.20;;;;;;;;;;4847673;29;20069;-59
2022/12/15 01:55:29;;;;;;;26.70;15.63;;;;;;;;;;4863684;29;20049;-59
2022/12/15 01:57:58;;;;;;;25.48;15.75;;;;;;;;;;4848390;29;20053;-57
2022/12/15 02:00:25;;;;;;;26.25;15.93;;;;;;;;;;4833194;29;20052;-60
2022/12/15 02:02:51;;;;;;;26.88;14.98;;;;;;;;;;4863414;29;20045;-59
2022/12/15 02:05:19;;;;;;;23.90;15.15;;;;;;;;;;4847311;29;20062;-59
2022/12/15 02:07:45;;;;;;;26.17;15.95;;;;;;;;;;4863373;29;20061;-59
2022/12/15 02:10:15;;;;;;;26.20;15.65;;;;;;;;;;4863002;29;20448;-60
2022/12/15 02:12:52;;;;;;;26.08;16.38;;;;;;;;;;4863324;29;20049;-59
2022/12/15 02:15:25;;;;;;;31.50;16.90;;;;;;;;;;4863008;29;20052;-60
2022/12/15 02:18:10;;;;;;;28.30;16.73;;;;;;;;;;4863839;29;20049;-60
2022/12/15 02:20:57;;;;;;;29.33;16.20;;;;;;;;;;4847890;29;20054;-60
2022/12/15 02:23:32;;;;;;;26.15;15.23;;;;;;;;;;4863882;29;20053;-60
2022/12/15 02:26:02;;;;;;;22.55;14.80;;;;;;;;;;4861754;29;20121;-60
2022/12/15 02:28:51;;;;;;;29.38;15.40;;;;;;;;;;4862498;29;20263;-58
2022/12/15 02:34:13;;;;;;;24.85;15.32;;;;;;;;;;4862766;29;20049;-59
2022/12/15 02:36:47;;;;;;;24.83;15.02;;;;;;;;;;4861464;29;20045;-59
2022/12/15 02:39:14;;;;;;;26.63;16.33;;;;;;;;;;4862468;29;20050;-59
2022/12/15 02:41:42;;;;;;;31.27;16.85;;;;;;;;;;4862664;29;20081;-59
2022/12/15 02:44:13;;;;;;;29.17;16.27;;;;;;;;;;4863084;29;20062;-59
2022/12/15 02:46:59;;;;;;;27.38;16.63;;;;;;;;;;4845443;29;20114;-60
2022/12/15 02:49:31;;;;;;;26.52;15.75;;;;;;;;;;4862175;29;20056;-60
2022/12/15 02:52:17;;;;;;;28.83;15.90;;;;;;;;;;4844651;29;20038;-58
2022/12/15 02:55:02;;;;;;;27.02;15.43;;;;;;;;;;4849866;29;20062;-59
2022/12/15 02:57:35;;;;;;;25.33;15.73;;;;;;;;;;4844428;29;20049;-59
2022/12/15 03:00:06;;;;;;;25.35;16.20;;;;;;;;;;4859627;29;20049;-59
2022/12/15 03:02:33;;;;;;;26.48;15.38;;;;;;;;;;4860177;29;20053;-57
2022/12/15 03:05:00;;;;;;;30.40;17.10;;;;;;;;;;4860234;29;20132;-58
2022/12/15 03:07:26;;;;;;;26.23;16.00;;;;;;;;;;4861121;29;20109;-58
2022/12/15 03:10:00;;;;;;;27.38;16.35;;;;;;;;;;4861387;29;20136;-58
2022/12/15 03:12:26;;;;;;;25.10;15.82;;;;;;;;;;4861035;29;20098;-58
2022/12/15 03:14:53;;;;;;;27.02;16.10;;;;;;;;;;4843839;29;20388;-59
2022/12/15 03:17:19;;;;;;;27.27;16.83;;;;;;;;;;4859840;29;20050;-60
2022/12/15 03:19:45;;;;;;;27.33;16.10;;;;;;;;;;4860534;29;20109;-59
2022/12/15 03:22:15;;;;;;;27.92;15.35;;;;;;;;;;4860343;29;20129;-57
2022/12/15 03:24:41;;;;;;;26.60;16.50;;;;;;;;;;4860468;29;20094;-58
2022/12/15 03:27:08;;;;;;;25.67;15.50;;;;;;;;;;4859985;29;20056;-58
2022/12/15 03:29:34;;;;;;;29.92;16.95;;;;;;;;;;4862469;29;20207;-57
2022/12/15 03:32:01;;;;;;;25.85;15.85;;;;;;;;;;4860654;29;20056;-59
2022/12/15 03:34:27;;;;;;;25.10;15.10;;;;;;;;;;4844543;29;20058;-58
2022/12/15 03:36:54;;;;;;;25.55;15.65;;;;;;;;;;4860065;29;20402;-58
2022/12/15 03:39:20;;;;;;;25.42;14.50;;;;;;;;;;4843780;29;20109;-58
2022/12/15 03:41:46;;;;;;;22.88;14.70;;;;;;;;;;4859788;29;20109;-58
2022/12/15 03:44:13;;;;;;;24.38;15.65;;;;;;;;;;4843406;29;20114;-59
2022/12/15 03:46:39;;;;;;;25.10;15.05;;;;;;;;;;4859539;29;20050;-59
2022/12/15 03:49:06;;;;;;;25.48;15.80;;;;;;;;;;4844029;29;20045;-59
2022/12/15 03:51:32;;;;;;;24.98;15.25;;;;;;;;;;4859602;29;20038;-59
2022/12/15 03:53:58;;;;;;;23.48;15.68;;;;;;;;;;4859779;29;20045;-58
2022/12/15 03:56:25;;;;;;;26.33;15.48;;;;;;;;;;4859262;29;20090;-58
2022/12/15 03:58:51;;;;;;;26.45;15.00;;;;;;;;;;4843031;29;20053;-60
2022/12/15 04:01:24;;;;;;;28.20;16.83;;;;;;;;;;4859730;29;20049;-58
2022/12/15 04:03:51;;;;;;;25.50;15.68;;;;;;;;;;4829064;29;20064;-58
2022/12/15 04:06:25;;;;;;;26.27;15.60;;;;;;;;;;4859777;29;20128;-59
2022/12/15 04:08:52;;;;;;;25.45;14.75;;;;;;;;;;4860459;29;20086;-59
2022/12/15 04:11:18;;;;;;;26.33;15.90;;;;;;;;;;4860281;29;20056;-60
2022/12/15 04:13:45;;;;;;;28.70;16.70;;;;;;;;;;4862807;29;20045;-60
2022/12/15 04:16:11;;;;;;;26.48;15.38;;;;;;;;;;4863252;29;20045;-59
2022/12/15 04:18:44;;;;;;;29.70;16.48;;;;;;;;;;4863754;29;20056;-59
2022/12/15 04:21:11;;;;;;;27.63;16.08;;;;;;;;;;4863217;29;20057;-59
2022/12/15 04:23:38;;;;;;;30.85;16.70;;;;;;;;;;4863155;29;20042;-59
2022/12/15 05:32:19;;;;;;;28.08;16.55;;;;;;;;;;4879660;29;20486;-60
2022/12/15 05:34:45;;;;;;;30.08;17.02;;;;;;;;;;4879508;29;20049;-60
2022/12/15 05:37:11;;;;;;;26.38;15.80;;;;;;;;;;4879027;29;20089;-61
2022/12/15 05:39:38;;;;;;;28.23;16.38;;;;;;;;;;4879575;29;20105;-60
2022/12/15 05:42:04;;;;;;;27.73;16.48;;;;;;;;;;4863001;29;20512;-60
2022/12/15 05:44:31;;;;;;;35.60;17.00;;;;;;;;;;4879255;29;20045;-60
2022/12/15 05:46:57;;;;;;;30.20;17.55;;;;;;;;;;4878897;29;20518;-60
2022/12/15 05:49:23;;;;;;;27.42;15.82;;;;;;;;;;4879395;29;20145;-60
2022/12/15 05:51:50;;;;;;;31.73;17.10;;;;;;;;;;4879030;29;20049;-60
2022/12/15 05:54:17;;;;;;;29.50;16.20;;;;;;;;;;4879199;29;20045;-60
2022/12/15 05:56:44;;;;;;;32.38;17.13;;;;;;;;;;4878581;29;20041;-60
2022/12/15 05:59:11;;;;;;;27.77;16.45;;;;;;;;;;4879234;29;20052;-60
2022/12/15 06:01:37;;;;;;;30.50;16.90;;;;;;;;;;4877718;29;20135;-60
2022/12/15 06:04:04;;;;;;;36.17;18.42;;;;;;;;;;4879008;29;20132;-60
2022/12/15 06:06:30;;;;;;;29.27;16.85;;;;;;;;;;4861775;29;20057;-60
2022/12/15 06:08:57;;;;;;;32.70;17.52;;;;;;;;;;4877819;29;20044;-61
2022/12/15 06:11:23;;;;;;;30.70;18.13;;;;;;;;;;4880481;29;20494;-60
2022/12/15 06:13:50;;;;;;;31.50;17.40;;;;;;;;;;4877777;29;20052;-61
2022/12/15 06:16:20;;;;;;;28.60;16.95;;;;;;;;;;4878029;29;20041;-60
2022/12/15 06:18:49;;;;;;;30.00;17.05;;;;;;;;;;4878670;29;20059;-60
2022/12/15 06:21:20;;;;;;;26.27;16.48;;;;;;;;;;4878720;29;20052;-60
2022/12/15 06:23:46;;;;;;;32.22;17.73;;;;;;;;;;4862277;29;20033;-60
2022/12/15 06:26:14;;;;;;;29.83;17.25;;;;;;;;;;4878200;29;20045;-61
2022/12/15 06:28:41;;;;;;;33.28;18.77;;;;;;;;;;4878764;29;20495;-60
2022/12/15 06:31:08;;;;;;;36.65;19.00;;;;;;;;;;4877167;29;20053;-60
2022/12/15 06:33:35;;;;;;;28.52;16.65;;;;;;;;;;4878947;29;20045;-61
2022/12/15 06:36:03;;;;;;;33.05;18.70;;;;;;;;;;4877209;29;20047;-61
2022/12/15 06:38:30;;;;;;;35.55;19.50;;;;;;;;;;4878618;29;20048;-61
2022/12/15 06:41:00;;;;;;;33.08;17.15;;;;;;;;;;4878582;29;20041;-61
2022/12/15 06:43:27;;;;;;;33.38;19.27;;;;;;;;;;4861587;29;20052;-60
2022/12/15 06:45:54;;;;;;;31.85;18.10;;;;;;;;;;4878022;29;20140;-61
2022/12/15 06:48:21;;;;;;;32.22;18.63;;;;;;;;;;4861628;29;20068;-61
2022/12/15 06:50:48;;;;;;;34.75;18.67;;;;;;;;;;4878253;29;20045;-61
2022/12/15 06:53:16;;;;;;;29.67;16.63;;;;;;;;;;4878399;29;20053;-61
2022/12/15 06:55:43;;;;;;;31.70;17.10;;;;;;;;;;4861121;29;20528;-61
2022/12/15 06:58:11;;;;;;;35.28;18.10;;;;;;;;;;4877161;29;20044;-61
2022/12/15 07:00:38;;;;;;;33.90;18.52;;;;;;;;;;4878395;29;20048;-61
2022/12/15 07:03:15;;;;;;;31.10;18.23;;;;;;;;;;4876908;29;20121;-61
2022/12/15 07:05:42;;;;;;;31.83;17.52;;;;;;;;;;4877733;29;20045;-62
2022/12/15 07:08:10;;;;;;;32.05;18.95;;;;;;;;;;4861310;29;20065;-61
2022/12/15 07:10:37;;;;;;;31.27;18.50;;;;;;;;;;4877953;29;20045;-61
2022/12/15 07:13:04;;;;;;;35.90;18.92;;;;;;;;;;4878106;29;20517;-61
2022/12/15 07:15:30;;;;;;;33.50;19.80;;;;;;;;;;4878001;29;20041;-61
2022/12/15 07:17:59;;;;;;;33.35;17.75;;;;;;;;;;4877376;29;20422;-63
2022/12/15 07:20:25;;;;;;;33.70;18.90;;;;;;;;;;4878359;29;20064;-62
2022/12/15 07:22:54;;;;;;;34.30;18.92;;;;;;;;;;4878046;29;20065;-61
2022/12/15 07:25:21;;;;;;;33.30;18.40;;;;;;;;;;4861056;29;20518;-61
2022/12/15 07:27:47;;;;;;;32.17;18.73;;;;;;;;;;4861709;29;20053;-62
2022/12/15 07:30:14;;;;;;;33.10;18.00;;;;;;;;;;4877877;29;20056;-62
2022/12/15 07:32:43;;;;;;;31.30;18.70;;;;;;;;;;4878187;29;20045;-61
2022/12/15 07:35:15;;;;;;;;;;;;;;;;;;4877903;29;20522;-61
2022/12/15 07:37:42;;;;;;;34.83;17.83;;;;;;;;;;4861348;29;19931;-61
2022/12/15 07:40:09;;;;;;;31.67;17.00;;;;;;;;;;4878075;29;20420;-62
2022/12/15 07:42:35;;;;;;;30.08;18.08;;;;;;;;;;4878060;29;20097;-62
2022/12/15 07:45:02;;;;;;;34.38;18.65;;;;;;;;;;4861177;29;20064;-62
2022/12/15 07:47:29;;;;;;;32.47;17.73;;;;;;;;;;4863776;29;20474;-62
2022/12/15 07:49:55;;;;;;;30.67;17.15;;;;;;;;;;4880282;29;20097;-62
2022/12/15 07:52:22;;;;;;;33.45;19.17;;;;;;;;;;4881448;29;20093;-61
2022/12/15 07:54:48;;;;;;;33.05;18.40;;;;;;;;;;4881400;29;20444;-62
2022/12/15 07:57:15;;;;;;;29.77;17.30;;;;;;;;;;4864125;29;20049;-62
2022/12/15 07:59:41;;;;;;;33.45;17.60;;;;;;;;;;4881316;29;20056;-61
2022/12/15 08:02:09;;;;;;;34.80;19.45;;;;;;;;;;4881168;29;20053;-61
2022/12/15 08:04:36;;;;;;;34.22;18.52;;;;;;;;;;4881306;29;20085;-62
2022/12/15 08:07:02;;;;;;;31.25;19.48;;;;;;;;;;4880868;29;20128;-61
2022/12/15 08:09:30;;;;;;;32.97;18.27;;;;;;;;;;4881260;29;20069;-61
2022/12/15 08:11:57;;;;;;;41.92;19.65;;;;;;;;;;4864825;29;20333;-60
2022/12/15 08:14:23;;;;;;;37.30;20.45;;;;;;;;;;4881162;29;20057;-61
2022/12/15 08:16:50;;;;;;;39.05;19.75;;;;;;;;;;4880818;29;20529;-61
2022/12/15 08:19:17;;;;;;;36.22;19.17;;;;;;;;;;4865694;29;20521;-61
2022/12/15 08:21:44;;;;;;;35.78;20.27;;;;;;;;;;4882160;29;20049;-61
2022/12/15 08:24:12;;;;;;;47.47;25.90;;;;;;;;;;4882430;29;20492;-61
2022/12/15 08:26:39;;;;;;;35.92;20.10;;;;;;;;;;4864241;29;20072;-61
2022/12/15 08:29:06;;;;;;;35.17;19.70;;;;;;;;;;4879826;29;20144;-61
2022/12/15 08:31:53;;;;;;;34.15;19.10;;;;;;;;;;4879770;29;20049;-62
2022/12/15 08:34:20;;;;;;;39.00;20.73;;;;;;;;;;4881010;29;20055;-61
2022/12/15 08:36:46;;;;;;;35.88;20.10;;;;;;;;;;4879274;29;20498;-62
2022/12/15 08:39:12;;;;;;;39.25;20.92;;;;;;;;;;4880974;29;20110;-62
2022/12/15 08:41:40;;;;;;;41.40;21.30;;;;;;;;;;4880506;29;20494;-62
2022/12/15 08:44:06;;;;;;;43.63;23.13;;;;;;;;;;4863915;29;20057;-62
2022/12/15 08:46:33;;;;;;;39.90;21.33;;;;;;;;;;4880026;29;20493;-62
2022/12/15 08:49:00;;;;;;;38.08;21.42;;;;;;;;;;4863801;29;20048;-62
2022/12/15 08:51:27;;;;;;;35.22;20.67;;;;;;;;;;4880260;29;20486;-62
2022/12/15 08:53:55;;;;;;;40.00;22.13;;;;;;;;;;4880296;29;20049;-62
2022/12/15 08:56:22;;;;;;;37.90;21.20;;;;;;;;;;4863226;29;20045;-62
2022/12/15 08:58:49;;;;;;;41.85;22.00;;;;;;;;;;4862975;29;20520;-61
2022/12/15 09:01:17;;;;;;;37.10;19.80;;;;;;;;;;4879855;29;20056;-62
2022/12/15 09:03:49;;;;;;;39.57;20.73;;;;;;;;;;4880286;29;20391;-62
2022/12/15 09:06:20;;;;;;;39.90;21.23;;;;;;;;;;4879495;29;20044;-62
2022/12/15 09:08:47;;;;;;;33.75;20.10;;;;;;;;;;4879931;29;20102;-63
2022/12/15 09:11:16;;;;;;;36.63;19.95;;;;;;;;;;4879770;29;20049;-62
2022/12/15 09:13:43;;;;;;;37.58;20.48;;;;;;;;;;4880009;29;20055;-61
2022/12/15 09:16:13;;;;;;;37.45;20.58;;;;;;;;;;4879465;29;20052;-62
2022/12/15 09:18:41;;;;;;;30.58;18.45;;;;;;;;;;4880119;29;20053;-62
2022/12/15 09:21:07;;;;;;;28.60;18.30;;;;;;;;;;4880301;29;20048;-62
2022/12/15 09:23:34;;;;;;;34.65;20.17;;;;;;;;;;4880189;29;20049;-62
2022/12/15 09:26:03;;;;;;;34.47;19.85;;;;;;;;;;4879317;29;20045;-62
2022/12/15 09:28:30;;;;;;;33.65;19.13;;;;;;;;;;4879624;29;20049;-62
2022/12/15 09:31:00;;;;;;;35.33;20.48;;;;;;;;;;4879580;29;20109;-62
2022/12/15 09:33:27;;;;;;;40.85;20.90;;;;;;;;;;4879570;29;20044;-61
2022/12/15 09:35:54;;;;;;;38.92;21.73;;;;;;;;;;4879135;29;20073;-62
2022/12/15 09:38:20;;;;;;;35.53;19.83;;;;;;;;;;4879411;29;20064;-62
2022/12/15 09:40:47;;;;;;;38.28;20.52;;;;;;;;;;4879574;29;20045;-62
2022/12/15 09:43:18;;;;;;;35.85;19.98;;;;;;;;;;4879493;29;20498;-63
2022/12/15 09:46:10;;;;;;;36.20;20.20;;;;;;;;;;4865041;29;20073;-63
2022/12/15 09:48:39;;;;;;;34.85;19.48;;;;;;;;;;4862882;29;20076;-62
2022/12/15 09:51:07;;;;;;;40.55;21.50;;;;;;;;;;4879242;29;20131;-62
2022/12/15 09:53:34;;;;;;;37.45;20.42;;;;;;;;;;4862901;29;20045;-62
2022/12/15 09:56:24;;;;;;;34.50;19.63;;;;;;;;;;4878629;29;20104;-63
2022/12/15 09:58:51;;;;;;;37.90;20.75;;;;;;;;;;4879241;29;20045;-62
2022/12/15 10:01:25;;;;;;;35.42;20.73;;;;;;;;;;4878765;29;20543;-63
2022/12/15 10:04:06;;;;;;;31.70;18.10;;;;;;;;;;4879314;29;20071;-62
2022/12/15 10:06:35;;;;;;;33.58;18.83;;;;;;;;;;4877313;29;20049;-63
2022/12/15 10:09:15;;;;;;;36.83;18.48;;;;;;;;;;4878994;29;20101;-62
2022/12/15 10:11:50;;;;;;;31.85;18.50;;;;;;;;;;4862285;29;20060;-62
2022/12/15 10:14:25;;;;;;;32.88;17.90;;;;;;;;;;4878912;29;20064;-62
2022/12/15 10:17:05;;;;;;;32.97;19.40;;;;;;;;;;4878273;29;20045;-63
2022/12/15 10:19:46;;;;;;;34.50;18.95;;;;;;;;;;4862398;29;20112;-63
2022/12/15 10:22:36;;;;;;;36.03;18.40;;;;;;;;;;4878638;29;20044;-63
2022/12/15 10:25:14;;;;;;;29.77;18.08;;;;;;;;;;4878310;29;20426;-63
2022/12/15 10:27:59;;;;;;;31.98;18.70;;;;;;;;;;4878761;29;20084;-61
2022/12/15 10:30:26;;;;;;;32.53;18.70;;;;;;;;;;4878461;29;20045;-63
2022/12/15 10:32:55;;;;;;;32.63;19.58;;;;;;;;;;4878511;29;20376;-63
2022/12/15 10:35:25;;;;;;;32.03;18.38;;;;;;;;;;4878102;29;20052;-63
2022/12/15 10:37:56;;;;;;;32.33;19.10;;;;;;;;;;4879001;29;20462;-63
2022/12/15 10:40:41;;;;;;;33.70;19.13;;;;;;;;;;4878563;29;20045;-63
2022/12/15 10:43:26;;;;;;;33.95;19.33;;;;;;;;;;4878363;29;20053;-63
2022/12/15 10:46:00;;;;;;;35.72;19.90;;;;;;;;;;4877749;29;20052;-62
2022/12/15 10:48:27;;;;;;;29.17;18.60;;;;;;;;;;4878424;29;20562;-63
2022/12/15 10:51:12;;;;;;;32.97;19.55;;;;;;;;;;4878331;29;20049;-63
2022/12/15 10:53:41;;;;;;;31.20;19.52;;;;;;;;;;4878482;29;20501;-63
2022/12/15 10:56:08;;;;;;;33.70;19.98;;;;;;;;;;4878107;29;20088;-63
2022/12/15 10:58:44;;;;;;;39.55;21.92;;;;;;;;;;4878207;29;20066;-62
2022/12/15 11:01:17;;;;;;;36.72;20.60;;;;;;;;;;4861374;29;20049;-63
2022/12/15 11:03:45;;;;;;;34.88;20.05;;;;;;;;;;4861839;29;20087;-62
2022/12/15 11:06:14;;;;;;;33.10;18.50;;;;;;;;;;4877716;29;20405;-63
2022/12/15 11:08:42;;;;;;;33.38;20.05;;;;;;;;;;4878155;29;20076;-62
2022/12/15 11:14:25;;;;;;;35.95;21.00;;;;;;;;;;4878113;29;20041;-63
2022/12/15 11:16:56;;;;;;;32.42;19.73;;;;;;;;;;4876251;29;20451;-63
2022/12/15 11:19:22;;;;;;;35.65;19.75;;;;;;;;;;4878202;29;20049;-62
2022/12/15 11:21:52;;;;;;;33.80;18.52;;;;;;;;;;4879642;29;20085;-62
2022/12/15 11:24:25;;;;;;;33.33;19.38;;;;;;;;;;4881919;29;20121;-63
2022/12/15 11:27:00;;;;;;;33.78;19.52;;;;;;;;;;4881370;29;20089;-63
2022/12/15 11:29:43;;;;;;;36.20;19.98;;;;;;;;;;4882007;29;20056;-62
2022/12/15 11:32:11;;;;;;;35.90;20.35;;;;;;;;;;4881700;29;20479;-63
2022/12/15 11:34:41;;;;;;;31.05;17.90;;;;;;;;;;4881640;29;20041;-63
2022/12/15 11:37:27;;;;;;;34.67;19.33;;;;;;;;;;4881059;29;20092;-62
2022/12/15 11:40:20;;;;;;;28.35;15.82;;;;;;;;;;4881711;29;20096;-62
2022/12/15 11:43:05;;;;;;;35.00;18.75;;;;;;;;;;4864938;29;20097;-63
2022/12/15 11:45:34;;;;;;;34.30;19.65;;;;;;;;;;4881417;29;20045;-62
2022/12/15 11:48:04;;;;;;;34.10;19.95;;;;;;;;;;4881357;29;20105;-63
2022/12/15 11:50:30;;;;;;;33.35;19.83;;;;;;;;;;4881325;29;20044;-63
2022/12/15 11:53:08;;;;;;;36.08;20.90;;;;;;;;;;4881252;29;20049;-61
2022/12/15 11:55:45;;;;;;;34.33;19.60;;;;;;;;;;4880825;29;20439;-64
2022/12/15 11:58:14;;;;;;;32.53;19.88;;;;;;;;;;4881181;29;20061;-60
2022/12/15 12:00:43;;;;;;;36.40;19.17;;;;;;;;;;4881205;29;20109;-62
2022/12/15 12:03:21;;;;;;;34.38;18.90;;;;;;;;;;4881041;29;20499;-62
2022/12/15 12:06:06;;;;;;;31.05;19.15;;;;;;;;;;4880766;29;20136;-61
2022/12/15 12:08:34;;;;;;;33.10;19.67;;;;;;;;;;4879597;29;20072;-61
2022/12/15 12:11:01;;;;;;;36.10;20.65;;;;;;;;;;4880982;29;20041;-61
2022/12/15 12:13:33;;;;;;;34.67;19.83;;;;;;;;;;4880986;29;20123;-60
2022/12/15 12:16:09;;;;;;;33.05;19.75;;;;;;;;;;4880613;29;20037;-60
2022/12/15 12:18:41;;;;;;;38.17;20.27;;;;;;;;;;4880995;29;20049;-60
2022/12/15 12:21:12;;;;;;;31.83;19.55;;;;;;;;;;4880771;29;20057;-59
2022/12/15 12:23:42;;;;;;;32.67;19.95;;;;;;;;;;4880648;29;20049;-62
2022/12/15 12:26:12;;;;;;;35.38;20.08;;;;;;;;;;4880160;29;20136;-62
2022/12/15 12:28:58;;;;;;;32.40;18.25;;;;;;;;;;4880801;29;20526;-60
2022/12/15 12:31:40;;;;;;;31.48;19.08;;;;;;;;;;4880493;29;20052;-61
2022/12/15 12:34:35;;;;;;;31.50;17.67;;;;;;;;;;4879566;29;20049;-61
2022/12/15 12:37:18;;;;;;;31.63;19.00;;;;;;;;;;4851610;29;20421;-61
2022/12/15 12:39:45;;;;;;;35.85;19.80;;;;;;;;;;4880452;29;20461;-60
2022/12/15 12:42:15;;;;;;;33.42;18.05;;;;;;;;;;4880266;29;20454;-60
2022/12/15 12:44:42;;;;;;;37.60;19.83;;;;;;;;;;4880711;29;20044;-61
2022/12/15 12:47:25;;;;;;;36.78;19.67;;;;;;;;;;4863535;29;20168;-61
2022/12/15 12:49:55;;;;;;;36.33;20.15;;;;;;;;;;4880625;29;20513;-60
2022/12/15 12:52:24;;;;;;;37.38;20.17;;;;;;;;;;4880130;29;20041;-61
2022/12/15 12:54:57;;;;;;;35.38;19.60;;;;;;;;;;4863767;29;20137;-60
2022/12/15 12:57:40;;;;;;;34.28;18.17;;;;;;;;;;4879997;29;20048;-60
2022/12/15 13:00:06;;;;;;;34.40;19.35;;;;;;;;;;4863379;29;20482;-61
2022/12/15 13:02:39;;;;;;;38.70;19.85;;;;;;;;;;4880124;29;20057;-61
2022/12/15 13:05:24;;;;;;;39.53;21.55;;;;;;;;;;4879054;29;20044;-61
2022/12/15 13:07:54;;;;;;;34.92;19.35;;;;;;;;;;4880021;29;20063;-60
2022/12/15 13:10:21;;;;;;;35.97;19.50;;;;;;;;;;4878853;29;20052;-61
2022/12/15 13:12:50;;;;;;;37.60;20.38;;;;;;;;;;4879957;29;20045;-60
2022/12/15 13:15:38;;;;;;;35.10;19.73;;;;;;;;;;4879379;29;20079;-60
2022/12/15 13:18:16;;;;;;;36.22;21.25;;;;;;;;;;4880162;29;20057;-60
2022/12/15 13:20:43;;;;;;;38.40;20.67;;;;;;;;;;4880069;29;20049;-61
2022/12/15 13:23:16;;;;;;;36.13;20.90;;;;;;;;;;4863057;29;20041;-62
2022/12/15 13:25:43;;;;;;;35.45;20.98;;;;;;;;;;4879516;29;20041;-61
2022/12/15 13:28:28;;;;;;;36.13;20.83;;;;;;;;;;4879844;29;20470;-61
2022/12/15 13:31:13;;;;;;;39.30;21.67;;;;;;;;;;4878471;29;20101;-61
2022/12/15 13:33:49;;;;;;;37.08;20.85;;;;;;;;;;4880064;29;20491;-62
2022/12/15 13:36:44;;;;;;;41.38;20.92;;;;;;;;;;4879573;29;20052;-61
2022/12/15 13:39:19;;;;;;;30.10;18.70;;;;;;;;;;4856006;29;20132;-61
2022/12/15 13:41:45;;;;;;;42.25;22.42;;;;;;;;;;4879652;29;20057;-60
2022/12/15 13:44:40;;;;;;;36.75;20.60;;;;;;;;;;4878479;29;20076;-61
2022/12/15 13:47:11;;;;;;;39.00;21.20;;;;;;;;;;4880812;29;20045;-61
2022/12/15 13:49:46;;;;;;;35.38;20.90;;;;;;;;;;4895076;23;20048;-60
2022/12/15 13:52:22;;;;;;;41.30;21.55;;;;;;;;;;4916984;29;20036;-58
2022/12/15 13:55:19;;;;;;;37.90;21.75;;;;;;;;;;4916686;29;20378;-57
2022/12/15 13:57:54;;;;;;;40.90;22.10;;;;;;;;;;4917030;29;20036;-58
2022/12/15 14:00:20;;;;;;;39.45;21.65;;;;;;;;;;4884029;29;20445;-58
2022/12/15 14:02:47;;;;;;;40.95;23.00;;;;;;;;;;4897943;29;20044;-59
2022/12/15 14:05:13;;;;;;;37.25;20.95;;;;;;;;;;4897327;29;20615;-57
2022/12/15 14:07:42;;;;;;;40.30;20.02;;;;;;;;;;4898310;29;20048;-57
2022/12/15 14:10:16;;;;;;;38.08;20.30;;;;;;;;;;4898127;29;20390;-60
2022/12/15 14:12:42;;;;;;;;;;;;;;;;;;4898402;29;20044;-60
2022/12/15 14:15:13;;;;;;;37.35;18.85;;;;;;;;;;4880753;29;19932;-61
2022/12/15 14:17:40;;;;;;;39.08;19.98;;;;;;;;;;4897655;29;20512;-60
2022/12/15 14:20:10;;;;;;;40.55;20.23;;;;;;;;;;4898542;29;20092;-58
2022/12/15 14:22:40;;;;;;;36.35;19.70;;;;;;;;;;4901168;29;20528;-57
2022/12/15 14:25:15;;;;;;;43.10;22.05;;;;;;;;;;4885337;29;20056;-56
2022/12/15 14:27:42;;;;;;;36.15;20.60;;;;;;;;;;4902726;29;20171;-58
2022/12/15 14:30:18;;;;;;;40.58;20.63;;;;;;;;;;4902530;29;20044;-57
2022/12/15 14:32:46;;;;;;;34.67;18.10;;;;;;;;;;4902718;29;20053;-58
2022/12/15 14:35:20;;;;;;;33.30;18.65;;;;;;;;;;4901148;29;20080;-57
2022/12/15 14:37:47;;;;;;;36.92;18.73;;;;;;;;;;4899468;29;20045;-60
2022/12/15 14:40:15;;;;;;;35.17;19.17;;;;;;;;;;4900043;29;20085;-58
2022/12/15 14:42:42;;;;;;;35.58;18.88;;;;;;;;;;4901879;29;20048;-60
2022/12/15 14:45:27;;;;;;;36.90;18.75;;;;;;;;;;4898972;29;20053;-59
2022/12/15 14:47:56;;;;;;;29.92;16.75;;;;;;;;;;4898662;29;20056;-57
2022/12/15 14:50:46;;;;;;;37.00;18.52;;;;;;;;;;4898331;29;20048;-58
2022/12/15 14:53:15;;;;;;;35.67;18.35;;;;;;;;;;4897697;29;20104;-57
2022/12/15 14:55:41;;;;;;;37.22;19.50;;;;;;;;;;4879651;29;20048;-60
2022/12/15 14:58:25;;;;;;;38.22;19.80;;;;;;;;;;4897628;29;20096;-57
2022/12/15 15:00:52;;;;;;;39.03;20.70;;;;;;;;;;4897637;29;20412;-58
2022/12/15 15:03:24;;;;;;;40.65;19.58;;;;;;;;;;4880512;29;20040;-57
2022/12/15 15:05:58;;;;;;;38.75;20.50;;;;;;;;;;4896799;29;20059;-59
2022/12/15 15:08:27;;;;;;;39.75;20.13;;;;;;;;;;4880572;29;20076;-57
2022/12/15 15:10:56;;;;;;;43.67;20.73;;;;;;;;;;4880895;29;20553;-59
2022/12/15 15:13:24;;;;;;;38.72;20.08;;;;;;;;;;4880461;29;20040;-58
2022/12/15 15:15:55;;;;;;;40.22;19.73;;;;;;;;;;4896549;29;20777;-59
2022/12/15 15:18:24;;;;;;;41.70;19.98;;;;;;;;;;4897010;29;20045;-59
2022/12/15 15:20:55;;;;;;;40.97;21.35;;;;;;;;;;4880543;29;20101;-58
2022/12/15 15:23:21;;;;;;;44.10;21.23;;;;;;;;;;4880120;29;20506;-60
2022/12/15 15:25:55;;;;;;;42.58;22.15;;;;;;;;;;4896472;29;20104;-58
2022/12/15 15:28:26;;;;;;;45.20;22.65;;;;;;;;;;4896891;29;20498;-60
2022/12/15 15:30:53;;;;;;;44.65;21.77;;;;;;;;;;4897116;29;20059;-57
2022/12/15 15:33:25;;;;;;;47.05;21.90;;;;;;;;;;4896849;29;20041;-60
2022/12/15 15:35:53;;;;;;;45.55;22.33;;;;;;;;;;4879663;29;20045;-57
2022/12/15 15:38:38;;;;;;;47.70;24.20;;;;;;;;;;4896762;29;20067;-58
2022/12/15 15:41:15;;;;;;;47.05;23.50;;;;;;;;;;4880334;29;20059;-58
2022/12/15 15:43:43;;;;;;;50.75;23.63;;;;;;;;;;4896908;29;20045;-59
2022/12/15 15:46:10;;;;;;;47.67;22.55;;;;;;;;;;4879780;29;20409;-60
2022/12/15 15:48:40;;;;;;;51.40;23.20;;;;;;;;;;4880021;29;20052;-58
2022/12/15 15:51:07;;;;;;;56.80;25.90;;;;;;;;;;4897193;29;20088;-59
2022/12/15 15:53:34;;;;;;;47.20;23.02;;;;;;;;;;4896740;29;20069;-58
2022/12/15 15:56:02;;;;;;;50.33;24.67;;;;;;;;;;4896428;29;20105;-57
2022/12/15 15:58:29;;;;;;;47.25;23.80;;;;;;;;;;4880000;29;20049;-57
2022/12/15 16:00:56;;;;;;;49.92;23.85;;;;;;;;;;4896778;29;20055;-58
2022/12/15 16:03:22;;;;;;;52.70;25.88;;;;;;;;;;4896791;29;20057;-60
2022/12/15 16:05:49;;;;;;;47.42;23.58;;;;;;;;;;4896364;29;20157;-60
2022/12/15 16:08:17;;;;;;;48.15;23.30;;;;;;;;;;4882415;29;20059;-60
2022/12/15 16:10:46;;;;;;;49.47;23.27;;;;;;;;;;4900269;29;20116;-60
2022/12/15 16:13:17;;;;;;;48.17;23.63;;;;;;;;;;4900086;29;20536;-57
2022/12/15 16:15:51;;;;;;;50.03;23.92;;;;;;;;;;4899690;29;20072;-60
2022/12/15 16:18:18;;;;;;;44.88;22.95;;;;;;;;;;4899751;29;20391;-59
2022/12/15 16:20:46;;;;;;;48.28;24.48;;;;;;;;;;4883440;29;20060;-60
2022/12/15 16:23:14;;;;;;;48.20;23.33;;;;;;;;;;4900057;29;20100;-59
2022/12/15 16:25:42;;;;;;;50.65;23.65;;;;;;;;;;4882801;29;20052;-60
2022/12/15 16:28:20;;;;;;;52.85;24.95;;;;;;;;;;4900159;29;20497;-61
2022/12/15 16:30:46;;;;;;;49.63;25.40;;;;;;;;;;4899189;29;20053;-58
2022/12/15 16:33:13;;;;;;;47.42;24.70;;;;;;;;;;4903504;29;20131;-60
2022/12/15 16:35:40;;;;;;;48.03;24.95;;;;;;;;;;4902809;29;20045;-60
2022/12/15 16:38:15;;;;;;;48.72;23.92;;;;;;;;;;4903077;29;20097;-59
2022/12/15 16:40:41;;;;;;;;;;;;;;;;;;4903629;29;20036;-59
2022/12/15 16:43:18;;;;;;;48.40;23.13;;;;;;;;;;4904993;29;19962;-59
2022/12/15 16:45:46;;;;;;;44.90;24.27;;;;;;;;;;4886482;29;20045;-57
2022/12/15 16:48:13;;;;;;;49.72;23.67;;;;;;;;;;4887230;29;20048;-57
2022/12/15 16:50:41;;;;;;;43.85;23.52;;;;;;;;;;4903458;29;20049;-58
2022/12/15 16:53:14;;;;;;;43.05;22.55;;;;;;;;;;4885288;29;20044;-59
2022/12/15 16:55:40;;;;;;;46.30;24.15;;;;;;;;;;4900345;29;20611;-60
2022/12/15 16:58:09;;;;;;;51.33;26.15;;;;;;;;;;4883871;29;20044;-60
2022/12/15 17:00:35;;;;;;;49.85;26.48;;;;;;;;;;4883731;29;20069;-59
2022/12/15 17:03:02;;;;;;;47.08;23.23;;;;;;;;;;4899984;29;20049;-61